Severance, NY (12872)

3:32 AM EDT on April 21, 2015 (GMT -0400)
KNYSCHRO2 | | Change Station
CLOSE
Current Station
Personal Weather Station
Location: Schroon Lake, NY
Elevation: 866 ft
Nearby Weather Stations

Elev 866 ft 43.84 °N, 73.76 °W | Updated 40 seconds ago

Rain
Rain
44.2 °F
Feels Like 44 °F
N
0.0
Wind Variable Wind from West
Gusts 0.0 mph

Today
High -- | Low -- °F
--% Chance of Precip.
Yesterday
High -- | Low -- °F
Precip. -- in
6:02 AM 7:45 PM
Waxing Crescent, 9% visible
Pressure 29.60 in
Visibility 10.0 miles
Clouds Mostly Cloudy 2500 ft
Mostly Cloudy 3000 ft
Overcast 3400 ft
Windchill 44 °F
Dew Point 44 °F
Humidity 98%
Rainfall 0.24 in
Snow Depth Not available.
UV 0 out of 12
Pollen 6.80 out of 12
Air Quality Not available.
Flu Activity Widespread
METAR K6B0 210715Z AUTO 14005G18KT 10SM BKN025 BKN030 OVC034 11/06 A2960 RMK AO2 LTG DSNT S AND SW T01060058

More Conditions Fewer Conditions

Pressure 29.60 in
Visibility 10.0 miles
Clouds Mostly Cloudy 2500 ft
Mostly Cloudy 3000 ft
Overcast 3400 ft
Windchill 44 °F
Dew Point 44 °F
Humidity 98%
Rainfall 0.24 in
Snow Depth Not available.
UV 0 out of 12
Pollen 6.80 out of 12
Air Quality Not available.
Flu Activity Widespread
METAR K6B0 210715Z AUTO 14005G18KT 10SM BKN025 BKN030 OVC034 11/06 A2960 RMK AO2 LTG DSNT S AND SW T01060058

More Conditions Fewer Conditions

10-Day Weather Forecast

Almanac

Astronomy

Apr. 21, 2015 Rise Set
Actual Time
Civil Twilight
Nautical Twilight
Astronomical Twilight
Moon
Length of Visible Light
Length of Day
Tomorrow will be .
, % of the Moon is Illuminated

Today's Extremes

State Highs State Lows

Community

WunderPhotos

Upload Photos

1,815,324 photos uploaded!

WunderBlogs® & News

Nearby

Air Quality

  Air Quality AQ Index Pollutant
Not available.

Snow Depth

Station Depth Elevation

Earthquake Activity

City Distance Mag. Time & Date
Minimum magnitude displayed is 2.5.

Coastal Water Temperatures

Place Temperature

Stations

Nearby Weather Stations

Station Location Temp. Windchill Dew Point Humidity Wind Precip. Elev Updated Type